createdAt,value
2023-03-02T00:00:41.048Z,14.5
2023-03-02T00:01:21.927Z,15.10
2023-03-02T00:02:21.420Z,13.60
2023-03-02T00:03:21.090Z,13.80
2023-03-02T00:04:21.884Z,13.69
2023-03-02T00:05:21.711Z,13.89
2023-03-02T00:06:21.437Z,14.30
2023-03-02T00:07:22.157Z,14.5
2023-03-02T00:08:20.864Z,13.10
2023-03-02T00:09:21.693Z,12.60
2023-03-02T00:10:21.392Z,14.10
2023-03-02T00:13:21.202Z,14
2023-03-02T00:14:21.425Z,14.80
2023-03-02T00:15:21.964Z,12.19
2023-03-02T00:16:21.573Z,13.60
2023-03-02T00:17:22.172Z,13.30
2023-03-02T00:18:21.408Z,12.39
2023-03-02T00:19:20.955Z,13.89
2023-03-02T00:20:21.438Z,13.39
2023-03-02T00:21:21.608Z,13.19
2023-03-02T00:22:21.606Z,12.69
2023-03-02T00:23:21.660Z,13.80
2023-03-02T00:24:22.219Z,13.10
2023-03-02T00:25:22.162Z,13.60
2023-03-02T00:26:21.817Z,12.80
2023-03-02T00:27:21.736Z,13.39
2023-03-02T00:28:21.490Z,13
2023-03-02T00:29:21.527Z,12.39
2023-03-02T00:30:21.913Z,14.10
2023-03-02T00:31:21.286Z,13.5
2023-03-02T00:32:21.246Z,12.39
2023-03-02T00:33:21.677Z,12.60
2023-03-02T00:34:21.723Z,13.39
2023-03-02T00:35:21.708Z,13.80
2023-03-02T00:36:21.099Z,12.89
2023-03-02T00:37:22.061Z,12.69
2023-03-02T00:38:21.244Z,14.69
2023-03-02T00:39:21.677Z,12.5
2023-03-02T00:40:21.216Z,12.80
2023-03-02T00:42:21.726Z,12.69
2023-03-02T00:43:21.286Z,13.60
2023-03-02T00:45:21.452Z,12.60
2023-03-02T00:47:21.249Z,12.89
2023-03-02T00:48:21.148Z,12.69
2023-03-02T00:51:21.433Z,13.69
2023-03-02T00:52:21.668Z,13.89
2023-03-02T00:53:22.060Z,12.10
2023-03-02T00:54:21.387Z,13.69
2023-03-02T00:55:22.145Z,14.19
2023-03-02T00:57:21.841Z,12.89
2023-03-02T00:58:21.341Z,13.5
2023-03-02T00:59:21.490Z,13.89
2023-03-02T01:00:22.528Z,13.60
2023-03-02T01:01:24.460Z,14.19
2023-03-02T01:03:21.354Z,14.5
2023-03-02T01:04:21.057Z,15.30
2023-03-02T01:05:22.090Z,15
2023-03-02T01:06:21.477Z,14.80
2023-03-02T01:07:21.674Z,15.89
2023-03-02T01:08:20.846Z,14.39
2023-03-02T01:09:21.632Z,14.89
2023-03-02T01:10:21.934Z,14.30
2023-03-02T01:11:21.460Z,15.80
2023-03-02T01:12:21.108Z,16.20
2023-03-02T01:13:21.377Z,14.80
2023-03-02T01:14:21.816Z,15.60
2023-03-02T01:15:21.709Z,14.39
2023-03-02T01:16:21.548Z,16.10
2023-03-02T01:17:21.333Z,15.30
2023-03-02T01:18:21.385Z,14.19
2023-03-02T01:19:21.918Z,15.10
2023-03-02T01:20:21.523Z,14.89
2023-03-02T01:21:21.008Z,16.79
2023-03-02T01:22:20.939Z,15
2023-03-02T01:23:21.315Z,15.30
2023-03-02T01:24:21.808Z,13.39
2023-03-02T01:25:21.426Z,16.5
2023-03-02T01:26:21.149Z,14
2023-03-02T01:27:21.576Z,14.60
2023-03-02T01:28:21.514Z,15.10
2023-03-02T01:29:21.478Z,13.69
2023-03-02T01:30:21.545Z,13.89
2023-03-02T01:31:21.544Z,14.39
2023-03-02T01:32:21.416Z,13.89
2023-03-02T01:33:21.331Z,14.60
2023-03-02T01:34:21.284Z,13.60
2023-03-02T01:35:21.801Z,14.69
2023-03-02T01:36:21.656Z,13.89
2023-03-02T01:37:21.060Z,14.69
2023-03-02T01:39:21.113Z,15.10
2023-03-02T01:40:21.987Z,13.60
2023-03-02T01:41:21.560Z,15.80
2023-03-02T01:42:21.377Z,13.60
2023-03-02T01:43:21.677Z,13
2023-03-02T01:44:21.230Z,13.89
2023-03-02T01:45:21.477Z,14
2023-03-02T01:46:21.261Z,15.39
2023-03-02T01:47:21.340Z,14.89
2023-03-02T01:48:21.222Z,14.39
2023-03-02T01:49:21.541Z,15
2023-03-02T01:50:21.860Z,13.69
2023-03-02T01:51:21.095Z,13.80
2023-03-02T01:53:21.146Z,13.30
2023-03-02T01:54:20.995Z,13.80
2023-03-02T01:55:26.149Z,14
2023-03-02T01:56:21.746Z,15.89
2023-03-02T01:57:21.036Z,13.80
2023-03-02T01:58:21.460Z,13.5
2023-03-02T01:59:21.435Z,14.5
2023-03-02T02:00:22.826Z,14.30
2023-03-02T02:01:30.221Z,14.39
2023-03-02T02:02:21.679Z,14.80
2023-03-02T02:03:21.781Z,14.19
2023-03-02T02:04:21.878Z,15.19
2023-03-02T02:05:21.895Z,14.39
2023-03-02T02:06:21.855Z,15.39
2023-03-02T02:07:22.007Z,15.80
2023-03-02T02:08:21.754Z,13.60
2023-03-02T02:09:21.668Z,13.89
2023-03-02T02:10:21.557Z,15.60
2023-03-02T02:11:21.740Z,15
2023-03-02T02:12:22.040Z,14.19
2023-03-02T02:13:21.328Z,14.5
2023-03-02T02:15:21.474Z,13.69
2023-03-02T02:16:21.664Z,13.10
2023-03-02T02:17:21.229Z,15
2023-03-02T02:18:21.081Z,13.60
2023-03-02T02:19:20.993Z,12.60
2023-03-02T02:20:22.091Z,14.69
2023-03-02T02:21:21.552Z,13.30
2023-03-02T02:22:21.131Z,14.80
2023-03-02T02:23:21.506Z,16.10
2023-03-02T02:24:21.103Z,13.39
2023-03-02T02:25:21.308Z,12.30
2023-03-02T02:26:21.099Z,13.60
2023-03-02T02:27:21.856Z,15.19
2023-03-02T02:28:21.382Z,14.30
2023-03-02T02:29:20.479Z,15.19
2023-03-02T02:30:21.932Z,12.69
2023-03-02T02:31:21.226Z,12.80
2023-03-02T02:32:21.059Z,13.30
2023-03-02T02:34:20.893Z,14.39
2023-03-02T02:35:21.625Z,14.60
2023-03-02T02:36:21.577Z,12.89
2023-03-02T02:37:21.539Z,13.5
2023-03-02T02:38:21.687Z,15
2023-03-02T02:39:21.409Z,14.69
2023-03-02T02:40:22.148Z,12.80
2023-03-02T02:41:20.846Z,15
2023-03-02T02:42:21.469Z,14
2023-03-02T02:43:21.247Z,13.30
2023-03-02T02:44:21.088Z,12.30
2023-03-02T02:45:21.619Z,13.5
2023-03-02T02:46:22.279Z,14
2023-03-02T02:47:21.418Z,14.10
2023-03-02T02:48:21.830Z,14
2023-03-02T02:49:21.260Z,14.30
2023-03-02T02:50:21.579Z,13.60
2023-03-02T02:51:21.194Z,14.10
2023-03-02T02:52:21.173Z,14.39
2023-03-02T02:53:21.174Z,13.60
2023-03-02T02:54:21.766Z,15
2023-03-02T02:55:21.534Z,13.80
2023-03-02T02:56:21.045Z,13.89
2023-03-02T02:57:21.281Z,14
2023-03-02T02:58:21.013Z,13.10
2023-03-02T02:59:21.274Z,13.39
2023-03-02T03:00:21.875Z,15.30
2023-03-02T03:01:22.474Z,12.80
2023-03-02T03:02:21.900Z,13.80
2023-03-02T03:03:22.102Z,14
2023-03-02T03:04:21.026Z,14.5
2023-03-02T03:05:21.749Z,13.69
2023-03-02T03:06:21.485Z,14.5
2023-03-02T03:07:20.963Z,13.10
2023-03-02T03:08:21.749Z,14.39
2023-03-02T03:09:21.514Z,14.69
2023-03-02T03:10:21.722Z,13.69
2023-03-02T03:11:21.060Z,14
2023-03-02T03:12:21.493Z,14.10
2023-03-02T03:14:21.643Z,12.60
2023-03-02T03:15:21.674Z,14.80
2023-03-02T03:16:21.474Z,13.39
2023-03-02T03:17:21.248Z,13.69
2023-03-02T03:18:21.006Z,14.10
2023-03-02T03:19:20.839Z,13.89
2023-03-02T03:20:21.562Z,13.19
2023-03-02T03:21:21.263Z,14.10
2023-03-02T03:22:21.801Z,14.60
2023-03-02T03:23:20.915Z,13.19
2023-03-02T03:24:21.023Z,14.5
2023-03-02T03:25:21.919Z,12.80
2023-03-02T03:26:21.429Z,13.5
2023-03-02T03:27:21.375Z,13.39
2023-03-02T03:28:20.947Z,13.19
2023-03-02T03:29:21.097Z,13.60
2023-03-02T03:30:22.191Z,14.30
2023-03-02T03:31:22.075Z,13.69
2023-03-02T03:32:21.200Z,13.10
2023-03-02T03:33:21.112Z,12.89
2023-03-02T03:34:21.419Z,12.80
2023-03-02T03:35:21.935Z,13.80
2023-03-02T03:36:21.656Z,13.30
2023-03-02T03:37:21.072Z,12.69
2023-03-02T03:38:21.267Z,12.39
2023-03-02T03:39:20.986Z,13.80
2023-03-02T03:40:21.638Z,13
2023-03-02T03:41:21.254Z,13.39
2023-03-02T03:42:21.284Z,13.30
2023-03-02T03:43:21.456Z,14.30
2023-03-02T03:44:21.433Z,13.5
2023-03-02T03:45:20.978Z,12.19
2023-03-02T03:46:21.173Z,12.30
2023-03-02T03:47:21.219Z,12.60
2023-03-02T03:48:21.170Z,13.30
2023-03-02T03:49:20.827Z,12.69
2023-03-02T03:50:22.002Z,12.80
2023-03-02T03:51:21.265Z,14
2023-03-02T03:52:21.093Z,12.60
2023-03-02T03:53:20.889Z,12.19
2023-03-02T03:55:21.202Z,12.89
2023-03-02T03:56:21.023Z,12.80
2023-03-02T03:57:20.973Z,12.69
2023-03-02T03:58:21.299Z,13.10
2023-03-02T03:59:21.018Z,11.89
2023-03-02T04:00:22.945Z,12.39
2023-03-02T04:01:21.448Z,13.30
2023-03-02T04:02:22.061Z,12.5
2023-03-02T04:03:21.372Z,14.19
2023-03-02T04:04:21.430Z,13.5
2023-03-02T04:05:21.766Z,13.10
2023-03-02T04:06:21.695Z,12.60
2023-03-02T04:07:22.015Z,12.80
2023-03-02T04:08:21.243Z,13
2023-03-02T04:09:21.459Z,13.60
2023-03-02T04:10:21.566Z,13.5
2023-03-02T04:11:21.533Z,14.30
2023-03-02T04:12:21.518Z,13.10
2023-03-02T04:13:21.534Z,13.5
2023-03-02T04:14:21.333Z,13.19
2023-03-02T04:15:21.526Z,12.60
2023-03-02T04:17:21.629Z,12.69
2023-03-02T04:19:21.110Z,12.80
2023-03-02T04:20:21.539Z,13.10
2023-03-02T04:21:21.536Z,12
2023-03-02T04:22:21.925Z,13.60
2023-03-02T04:23:20.763Z,12
2023-03-02T04:24:21.968Z,13.5
2023-03-02T04:25:21.620Z,11.89
2023-03-02T04:26:21.410Z,14.80
2023-03-02T04:27:20.872Z,13.60
2023-03-02T04:28:21.586Z,12.80
2023-03-02T04:29:21.337Z,13.30
2023-03-02T04:30:22.005Z,13.19
2023-03-02T04:31:21.453Z,13.30
2023-03-02T04:32:21.333Z,12.60
2023-03-02T04:33:21.536Z,13
2023-03-02T04:34:21.441Z,12.80
2023-03-02T04:35:21.745Z,13.39
2023-03-02T04:36:21.616Z,12.39
2023-03-02T04:37:20.703Z,13.80
2023-03-02T04:38:21.249Z,12.39
2023-03-02T04:39:21.320Z,13.10
2023-03-02T04:40:21.604Z,13.19
2023-03-02T04:41:21.145Z,14.10
2023-03-02T04:42:21.752Z,12.80
2023-03-02T04:43:20.765Z,12.89
2023-03-02T04:44:21.256Z,13.39
2023-03-02T04:45:21.316Z,13.30
2023-03-02T04:46:21.417Z,12.89
2023-03-02T04:47:21.120Z,13.5
2023-03-02T04:48:21.306Z,13.19
2023-03-02T04:49:21.266Z,13.10
2023-03-02T04:50:21.865Z,13.39
2023-03-02T04:51:22.101Z,11.80
2023-03-02T04:52:21.611Z,13.89
2023-03-02T04:53:21.488Z,13.19
2023-03-02T04:54:21.287Z,13.39
2023-03-02T04:55:21.279Z,12.5
2023-03-02T04:56:20.713Z,13.60
2023-03-02T04:59:21.341Z,12.5
2023-03-02T05:00:22.484Z,13.19
2023-03-02T05:01:21.622Z,13.30
2023-03-02T05:02:21.314Z,14.80
2023-03-02T05:03:21.028Z,12.69
2023-03-02T05:04:21.439Z,13.10
2023-03-02T05:05:21.319Z,13.19
2023-03-02T05:06:21.360Z,14.39
2023-03-02T05:07:21.597Z,12.89
2023-03-02T05:08:21.438Z,13.30
2023-03-02T05:09:21.448Z,14.30
2023-03-02T05:10:21.862Z,12.30
2023-03-02T05:11:21.628Z,12.69
2023-03-02T05:12:21.992Z,12.80
2023-03-02T05:13:21.231Z,13.69
2023-03-02T05:14:21.371Z,13.39
2023-03-02T05:15:21.341Z,12.5
2023-03-02T05:16:21.458Z,13.69
2023-03-02T05:17:21.527Z,13
2023-03-02T05:18:21.505Z,13.5
2023-03-02T05:19:21.929Z,12.69
2023-03-02T05:20:21.888Z,13.89
2023-03-02T05:21:21.310Z,11.80
2023-03-02T05:22:21.452Z,13.5
2023-03-02T05:23:21.968Z,13.60
2023-03-02T05:24:21.677Z,12.30
2023-03-02T05:25:22.050Z,14.39
2023-03-02T05:26:21.008Z,13.10
2023-03-02T05:27:21.267Z,13.89
2023-03-02T05:28:20.803Z,13.10
2023-03-02T05:29:21.417Z,12.80
2023-03-02T05:30:21.582Z,12.69
2023-03-02T05:31:21.674Z,13
2023-03-02T05:32:21.968Z,13.39
2023-03-02T05:33:21.883Z,13.5
2023-03-02T05:34:22.030Z,14
2023-03-02T05:35:21.810Z,13.80
2023-03-02T05:36:23.166Z,12.5
2023-03-02T05:37:21.678Z,13.19
2023-03-02T05:38:21.594Z,12.89
2023-03-02T05:39:21.216Z,15.10
2023-03-02T05:40:21.528Z,14.19
2023-03-02T05:41:21.178Z,13.30
2023-03-02T05:42:21.336Z,12.5
2023-03-02T05:43:20.999Z,13.19
2023-03-02T05:44:21.271Z,14.80
2023-03-02T05:45:21.393Z,13.5
2023-03-02T05:47:21.097Z,14.60
2023-03-02T05:48:21.198Z,13.69
2023-03-02T05:49:20.915Z,14
2023-03-02T05:50:21.856Z,12.60
2023-03-02T05:51:21.266Z,13.60
2023-03-02T05:52:21.498Z,13.30
2023-03-02T05:53:21.331Z,14.19
2023-03-02T05:55:21.717Z,13
2023-03-02T05:56:21.344Z,12.5
2023-03-02T05:57:21.978Z,13.80
2023-03-02T05:58:21.230Z,13.60
2023-03-02T06:00:22.542Z,12.69
2023-03-02T06:01:21.725Z,14.60
2023-03-02T06:02:21.803Z,13.5
2023-03-02T06:03:21.624Z,12
2023-03-02T06:04:21.809Z,14.60
2023-03-02T06:05:21.879Z,13.39
2023-03-02T06:06:21.352Z,14.30
2023-03-02T06:07:21.978Z,13.10
2023-03-02T06:08:21.344Z,12.89
2023-03-02T06:09:23.762Z,12.69
2023-03-02T06:10:21.371Z,12.80
2023-03-02T06:11:21.469Z,13.39
2023-03-02T06:13:21.712Z,14
2023-03-02T06:14:21.890Z,13.60
2023-03-02T06:15:22.418Z,13.69
2023-03-02T06:16:21.749Z,14.10
2023-03-02T06:17:21.631Z,15.10
2023-03-02T06:19:21.300Z,12.80
2023-03-02T06:20:21.603Z,12.89
2023-03-02T06:21:21.290Z,14.10
2023-03-02T06:22:21.931Z,13.80
2023-03-02T06:23:22.036Z,13.60
2023-03-02T06:24:22.530Z,14.60
2023-03-02T06:25:22.971Z,14
2023-03-02T06:26:21.400Z,15
2023-03-02T06:27:21.496Z,13.80
2023-03-02T06:28:21.105Z,14.10
2023-03-02T06:29:21.582Z,14.69
2023-03-02T06:30:21.617Z,15.60
2023-03-02T06:31:21.294Z,14
2023-03-02T06:32:21.344Z,13.5
2023-03-02T06:33:21.766Z,12.89
2023-03-02T06:34:21.884Z,13.60
2023-03-02T06:35:22.184Z,12.10
2023-03-02T06:36:21.608Z,14.80
2023-03-02T06:37:21.708Z,14.30
2023-03-02T06:38:21.524Z,14.39
2023-03-02T06:39:21.829Z,13.30
2023-03-02T06:40:22.039Z,13.89
2023-03-02T06:41:26.188Z,12.39
2023-03-02T06:42:21.732Z,13
2023-03-02T06:43:21.940Z,13.10
2023-03-02T06:44:21.474Z,13.5
2023-03-02T06:45:26.825Z,14.5
2023-03-02T06:46:21.451Z,12.89
2023-03-02T06:47:26.105Z,13.30
2023-03-02T06:48:21.538Z,13.69
2023-03-02T06:49:21.353Z,12.80
2023-03-02T06:50:22.517Z,13
2023-03-02T06:51:21.860Z,13.60
2023-03-02T06:52:21.912Z,12.39
2023-03-02T06:53:21.875Z,13.10
2023-03-02T06:54:23.990Z,12.5
2023-03-02T06:55:22.068Z,12.30
2023-03-02T06:56:21.451Z,13.5
2023-03-02T06:57:29.792Z,13.19
2023-03-02T06:58:20.981Z,14.10
2023-03-02T06:59:21.753Z,12.69
2023-03-02T07:00:25.618Z,13.5
2023-03-02T07:01:35.746Z,12.10
2023-03-02T07:02:21.217Z,14.69
2023-03-02T07:03:21.476Z,13.89
2023-03-02T07:05:21.514Z,13.60
2023-03-02T07:07:21.310Z,13.30
2023-03-02T07:08:20.942Z,12.5
2023-03-02T07:09:22.852Z,12.80
2023-03-02T07:10:22.850Z,13.19
2023-03-02T07:11:22.261Z,12.69
2023-03-02T07:12:22.364Z,12
2023-03-02T07:13:22.578Z,13.30
2023-03-02T07:14:21.552Z,13.10
2023-03-02T07:15:22.213Z,13.39
2023-03-02T07:16:22.024Z,14
2023-03-02T07:17:21.642Z,14.60
2023-03-02T07:18:21.825Z,14.89
2023-03-02T07:19:22.038Z,16.79
2023-03-02T07:20:21.740Z,15.19
2023-03-02T07:21:23.836Z,14.80
2023-03-02T07:22:21.394Z,13.60
2023-03-02T07:23:21.511Z,13
2023-03-02T07:24:21.646Z,13.69
2023-03-02T07:25:22.556Z,14.60
2023-03-02T07:26:22.296Z,16.60
2023-03-02T07:27:21.287Z,14.39
2023-03-02T07:28:22.102Z,16.89
2023-03-02T07:29:22.052Z,18.79
2023-03-02T07:30:21.922Z,18.5
2023-03-02T07:31:21.963Z,18
2023-03-02T07:32:21.723Z,21.20
2023-03-02T07:33:21.969Z,20.20
2023-03-02T07:34:21.587Z,23.39
2023-03-02T07:35:21.889Z,18.20
2023-03-02T07:36:21.855Z,19.79
2023-03-02T07:37:22.026Z,18.79
2023-03-02T07:38:21.741Z,19.89
2023-03-02T07:39:22.053Z,20.89
2023-03-02T07:40:22.302Z,20.5
2023-03-02T07:41:21.883Z,19
2023-03-02T07:42:22.141Z,19.5
2023-03-02T07:43:21.633Z,20.29
2023-03-02T07:44:22.026Z,19.60
2023-03-02T07:46:21.864Z,18
2023-03-02T07:47:21.633Z,20.39
2023-03-02T07:48:22.117Z,17.89
2023-03-02T07:49:21.691Z,18.29
2023-03-02T07:50:22.253Z,17.60
2023-03-02T07:51:21.633Z,15.89
2023-03-02T07:52:21.381Z,17.20
2023-03-02T07:53:21.716Z,15.80
2023-03-02T07:54:22.267Z,15.39
2023-03-02T07:55:21.937Z,17.29
2023-03-02T07:56:22.200Z,16.60
2023-03-02T07:57:22.378Z,14.5
2023-03-02T07:58:21.471Z,16.5
2023-03-02T08:00:22.794Z,15.30
2023-03-02T08:02:23.667Z,15
2023-03-02T08:03:21.649Z,16.20
2023-03-02T08:04:21.946Z,17.89
2023-03-02T08:05:20.933Z,16.10
2023-03-02T08:06:21.791Z,17.20
2023-03-02T08:07:21.595Z,15
2023-03-02T08:08:21.750Z,15.69
2023-03-02T08:10:22.401Z,15.89
2023-03-02T08:11:22.169Z,14.5
2023-03-02T08:12:22.150Z,13.39
2023-03-02T08:13:21.599Z,14
2023-03-02T08:14:22.140Z,16
2023-03-02T08:15:21.963Z,15.10
2023-03-02T08:16:21.388Z,16.20
2023-03-02T08:18:22.130Z,17.29
2023-03-02T08:19:21.976Z,15.80
2023-03-02T08:20:21.241Z,16
2023-03-02T08:21:21.536Z,15.10
2023-03-02T08:22:21.781Z,14.69
2023-03-02T08:23:21.848Z,14.5
2023-03-02T08:24:21.574Z,15.19
2023-03-02T08:25:22.116Z,14.60
2023-03-02T08:26:22.205Z,15.89
2023-03-02T08:27:21.409Z,16.60
2023-03-02T08:28:21.756Z,16.10
2023-03-02T08:29:22.019Z,16.29
2023-03-02T08:30:21.936Z,16.89
2023-03-02T08:31:21.601Z,17.89
2023-03-02T08:32:21.927Z,18.29
2023-03-02T08:33:21.915Z,16.5
2023-03-02T08:34:21.709Z,16.29
2023-03-02T08:35:21.753Z,15.69
2023-03-02T08:36:21.738Z,17.79
2023-03-02T08:37:21.987Z,18
2023-03-02T08:38:22.278Z,13.80
2023-03-02T08:39:21.786Z,16
2023-03-02T08:40:22.342Z,14.30
2023-03-02T08:41:21.988Z,14.5
2023-03-02T08:42:21.984Z,14.80
2023-03-02T08:43:21.733Z,13.60
2023-03-02T08:44:22.018Z,15.80
2023-03-02T08:45:21.985Z,18.5
2023-03-02T08:46:21.844Z,15.10
2023-03-02T08:47:21.556Z,15
2023-03-02T08:48:21.610Z,14.69
2023-03-02T08:49:21.939Z,15.69
2023-03-02T08:50:22.087Z,16
2023-03-02T08:51:22.257Z,16.10
2023-03-02T08:52:21.901Z,17.39
2023-03-02T08:54:22.208Z,15.19
2023-03-02T08:55:22.469Z,13.30
2023-03-02T08:56:22.151Z,13.60
2023-03-02T08:57:22.033Z,14.5
2023-03-02T08:58:21.372Z,14.19
2023-03-02T08:59:21.732Z,15.30
2023-03-02T09:00:22.665Z,14.5
2023-03-02T09:01:22.025Z,17.29
2023-03-02T09:02:22.010Z,15.19
2023-03-02T09:03:21.928Z,14.69
2023-03-02T09:04:21.871Z,15.39
2023-03-02T09:05:22.378Z,15.5
2023-03-02T09:06:22.210Z,13.5
2023-03-02T09:07:21.702Z,14.39
2023-03-02T09:08:26.625Z,16.29
2023-03-02T09:09:22.497Z,15.19
2023-03-02T09:10:27.113Z,14.80
2023-03-02T09:11:21.107Z,13.69
2023-03-02T09:12:22.222Z,13.5
2023-03-02T09:13:21.578Z,14.89
2023-03-02T09:14:21.864Z,12.89
2023-03-02T09:15:22.592Z,13.69
2023-03-02T09:16:22.507Z,15.39
2023-03-02T09:17:22.653Z,14.10
2023-03-02T09:18:21.502Z,14
2023-03-02T09:19:22.135Z,14.10
2023-03-02T09:20:22.424Z,13.5
2023-03-02T09:21:22.287Z,14.5
2023-03-02T09:22:22.173Z,14.30
2023-03-02T09:23:22.236Z,13.19
2023-03-02T09:26:22.629Z,15.80
2023-03-02T09:27:22.037Z,14
2023-03-02T09:28:22.351Z,14.10
2023-03-02T09:29:22.088Z,12.80
2023-03-02T09:30:22.691Z,13
2023-03-02T09:31:22.533Z,15
2023-03-02T09:32:22.561Z,11
2023-03-02T09:33:22.212Z,16.20
2023-03-02T09:34:21.825Z,12.19
2023-03-02T09:35:21.962Z,13.10
2023-03-02T09:36:22.012Z,12.69
2023-03-02T09:37:22.298Z,14.60
2023-03-02T09:38:21.843Z,12.30
2023-03-02T09:39:22.205Z,12.89
2023-03-02T09:40:22.346Z,14
2023-03-02T09:41:22.314Z,14.10
2023-03-02T09:42:23.976Z,12.69
2023-03-02T09:43:21.735Z,12.19
2023-03-02T09:44:21.205Z,13.19
2023-03-02T09:45:22.001Z,14.19
2023-03-02T09:46:22.192Z,13.89
2023-03-02T09:47:34.589Z,14.60
2023-03-02T09:48:21.736Z,12.5
2023-03-02T09:49:21.505Z,12.80
2023-03-02T09:50:21.980Z,15.19
2023-03-02T09:51:21.660Z,14.19
2023-03-02T09:52:21.868Z,14.10
2023-03-02T09:53:21.640Z,13.89
2023-03-02T09:54:22.517Z,13.39
2023-03-02T09:55:21.694Z,13.5
2023-03-02T09:56:44.029Z,14.10
2023-03-02T09:57:21.910Z,14.30
2023-03-02T09:58:22.075Z,15.69
2023-03-02T09:59:21.918Z,13.89
2023-03-02T10:00:45.629Z,14.10
2023-03-02T10:01:22.701Z,13.89
2023-03-02T10:02:21.715Z,15.39
2023-03-02T10:03:22.384Z,14.30
2023-03-02T10:06:21.739Z,15.69
2023-03-02T10:07:21.982Z,14.10
2023-03-02T10:08:21.775Z,15.69
2023-03-02T10:10:21.957Z,13.89
2023-03-02T10:11:21.836Z,13.5
2023-03-02T10:12:22.432Z,14.5
2023-03-02T10:13:21.711Z,15
2023-03-02T10:14:21.804Z,14.39
2023-03-02T10:15:22.232Z,13.89
2023-03-02T10:16:22.085Z,13.80
2023-03-02T10:17:21.286Z,14.39
2023-03-02T10:18:21.597Z,13.60
2023-03-02T10:19:22.194Z,13.10
2023-03-02T10:20:22.264Z,14.10
2023-03-02T10:21:21.894Z,13
2023-03-02T10:22:22.023Z,13.19
2023-03-02T10:23:21.404Z,15.69
2023-03-02T10:24:22.740Z,16.29
2023-03-02T10:25:22.615Z,13.89
2023-03-02T10:26:22.443Z,15.80
2023-03-02T10:27:22.000Z,15.19
2023-03-02T10:28:22.100Z,14.60
2023-03-02T10:29:22.223Z,14.19
2023-03-02T10:30:22.552Z,13.39
2023-03-02T10:31:22.053Z,14.30
2023-03-02T10:32:22.631Z,14.39
2023-03-02T10:33:22.074Z,14.60
2023-03-02T10:34:22.230Z,15.10
2023-03-02T10:35:22.850Z,14.10
2023-03-02T10:36:22.181Z,13.39
2023-03-02T10:37:22.299Z,13.30
2023-03-02T10:38:22.809Z,14.39
2023-03-02T10:39:22.421Z,15
2023-03-02T10:40:22.799Z,14
2023-03-02T10:41:22.258Z,12.69
2023-03-02T10:42:23.270Z,14.39
2023-03-02T10:43:22.444Z,13.19
2023-03-02T10:44:22.248Z,14.30
2023-03-02T10:45:22.397Z,13.39
2023-03-02T10:46:21.746Z,13.5
2023-03-02T10:47:21.990Z,13.80
2023-03-02T10:48:22.379Z,14.10
2023-03-02T10:49:22.078Z,15.19
2023-03-02T10:50:23.077Z,14.5
2023-03-02T10:51:22.639Z,14.60
2023-03-02T10:52:22.604Z,17.39
2023-03-02T10:53:22.566Z,14.80
2023-03-02T10:54:22.394Z,13.10
2023-03-02T10:55:22.583Z,16.10
2023-03-02T10:56:22.050Z,14.89
2023-03-02T10:57:22.493Z,15.10
2023-03-02T10:58:21.823Z,14.39
2023-03-02T10:59:22.653Z,15.89
2023-03-02T11:00:23.312Z,15.30
2023-03-02T11:01:22.917Z,13.60
2023-03-02T11:02:22.876Z,14.80
2023-03-02T11:03:23.634Z,14
2023-03-02T11:04:23.902Z,12.69
2023-03-02T11:05:24.135Z,13.80
2023-03-02T11:06:23.376Z,15.30
2023-03-02T11:07:23.654Z,14.89
2023-03-02T11:08:23.690Z,15.30
2023-03-02T11:09:22.140Z,16.70
2023-03-02T11:10:23.022Z,16.29
2023-03-02T11:11:22.814Z,14.10
2023-03-02T11:12:22.566Z,14.80
2023-03-02T11:13:22.476Z,14.39
2023-03-02T11:14:22.447Z,16.20
2023-03-02T11:15:23.418Z,14.69
2023-03-02T11:16:22.830Z,15
2023-03-02T11:17:22.256Z,14.19
2023-03-02T11:18:22.381Z,13.5
2023-03-02T11:19:22.553Z,14.5
2023-03-02T11:20:23.264Z,14.10
2023-03-02T11:21:22.183Z,13.69
2023-03-02T11:22:23.139Z,16.10
2023-03-02T11:23:22.569Z,18.10
2023-03-02T11:24:22.744Z,17.39
2023-03-02T11:25:22.426Z,15.5
2023-03-02T11:26:22.464Z,15.80
2023-03-02T11:27:22.174Z,14.5
2023-03-02T11:28:22.938Z,16.39
2023-03-02T11:29:22.869Z,18.29
2023-03-02T11:30:23.108Z,14.19
2023-03-02T11:31:27.574Z,15.10
2023-03-02T11:32:22.891Z,15.19
2023-03-02T11:33:27.211Z,12.69
2023-03-02T11:34:22.095Z,14.69
2023-03-02T11:35:27.668Z,14.89
2023-03-02T11:36:21.887Z,15.5
2023-03-02T11:37:26.580Z,13.80
2023-03-02T11:38:21.689Z,14.30
2023-03-02T11:39:22.281Z,16.39
2023-03-02T11:40:22.135Z,16.20
2023-03-02T11:41:22.551Z,16.70
2023-03-02T11:42:22.656Z,14.60
2023-03-02T11:43:22.220Z,17.20
2023-03-02T11:44:22.354Z,15
2023-03-02T11:45:31.586Z,15.60
2023-03-02T11:46:23.804Z,15.39
2023-03-02T11:47:30.182Z,15.69
2023-03-02T11:48:21.699Z,15.30
2023-03-02T11:51:22.307Z,13.69
2023-03-02T11:52:22.388Z,15.10
2023-03-02T11:53:36.072Z,13.5
2023-03-02T11:54:22.245Z,14.10
2023-03-02T11:55:21.692Z,13.30
2023-03-02T11:56:22.435Z,14.69
2023-03-02T11:57:21.694Z,15.80
2023-03-02T11:58:22.754Z,15.5
2023-03-02T11:59:22.431Z,17.39
2023-03-02T12:00:23.681Z,14.89
2023-03-02T12:01:36.278Z,15.80
2023-03-02T12:02:21.739Z,16.20
2023-03-02T12:03:22.428Z,15
2023-03-02T12:04:22.217Z,14.69
2023-03-02T12:05:21.622Z,15.69
2023-03-02T12:06:22.272Z,14.39
2023-03-02T12:07:22.348Z,15.39
2023-03-02T12:08:21.870Z,17.10
2023-03-02T12:09:21.672Z,16.29
2023-03-02T12:10:22.217Z,17.89
2023-03-02T12:11:22.232Z,14.89
2023-03-02T12:12:21.585Z,14.5
2023-03-02T12:13:22.405Z,17
2023-03-02T12:14:21.878Z,14.80
2023-03-02T12:15:22.094Z,14.19
2023-03-02T12:16:22.124Z,13.60
2023-03-02T12:17:21.813Z,17.79
2023-03-02T12:18:22.027Z,13.60
2023-03-02T12:19:21.653Z,14
2023-03-02T12:20:22.038Z,14.80
2023-03-02T12:21:22.407Z,15.10
2023-03-02T12:22:22.118Z,15.39
2023-03-02T12:23:21.975Z,12.89
2023-03-02T12:24:21.726Z,15.10
2023-03-02T12:25:22.442Z,15.5
2023-03-02T12:26:22.343Z,14.60
2023-03-02T12:27:22.350Z,13.69
2023-03-02T12:28:22.658Z,14.39
2023-03-02T12:29:22.340Z,15.10
2023-03-02T12:30:22.680Z,13.5
2023-03-02T12:31:21.636Z,13.80
2023-03-02T12:32:21.627Z,13.89
2023-03-02T12:34:22.103Z,14.60
2023-03-02T12:35:22.790Z,12.89
2023-03-02T12:36:21.917Z,14.30
2023-03-02T12:37:21.566Z,13.60
2023-03-02T12:38:22.082Z,13.30
2023-03-02T12:39:22.147Z,13.89
2023-03-02T12:40:21.469Z,13.80
2023-03-02T12:41:22.201Z,15.30
2023-03-02T12:42:22.395Z,13
2023-03-02T12:43:22.046Z,14.30
2023-03-02T12:44:21.547Z,14.10
2023-03-02T12:45:22.405Z,14.39
2023-03-02T12:46:21.738Z,14.89
2023-03-02T12:47:22.602Z,12.80
2023-03-02T12:48:21.153Z,15
2023-03-02T12:49:21.852Z,13.89
2023-03-02T12:50:22.263Z,13
2023-03-02T12:51:22.005Z,14.89
2023-03-02T12:52:23.871Z,12.89
2023-03-02T12:53:22.192Z,13.89
2023-03-02T12:55:22.074Z,13.39
2023-03-02T12:56:22.488Z,16
2023-03-02T12:57:21.846Z,12
2023-03-02T12:58:21.604Z,12.89
2023-03-02T12:59:22.277Z,12
2023-03-02T13:00:24.157Z,13.80
2023-03-02T13:01:22.841Z,13.19
2023-03-02T13:02:22.219Z,14.39
2023-03-02T13:03:21.940Z,13.10
2023-03-02T13:04:21.939Z,12.60
2023-03-02T13:05:22.040Z,13.19
2023-03-02T13:06:21.758Z,14.69
2023-03-02T13:07:22.230Z,14.60
2023-03-02T13:08:22.035Z,13.30
2023-03-02T13:09:22.546Z,12.30
2023-03-02T13:10:22.654Z,13.19
2023-03-02T13:11:22.274Z,12.19
2023-03-02T13:12:22.733Z,14.5
2023-03-02T13:13:21.778Z,13.80
2023-03-02T13:14:21.265Z,12.80
2023-03-02T13:15:22.419Z,12.89
2023-03-02T13:16:21.949Z,13.39
2023-03-02T13:17:22.528Z,14.80
2023-03-02T13:18:22.081Z,13.69
2023-03-02T13:19:22.560Z,13.89
2023-03-02T13:20:22.146Z,13.69
2023-03-02T13:21:22.726Z,13.80
2023-03-02T13:22:22.788Z,13.19
2023-03-02T13:23:22.826Z,15.80
2023-03-02T13:24:21.981Z,13.69
2023-03-02T13:25:22.665Z,12.10
2023-03-02T13:26:22.366Z,13.69
2023-03-02T13:27:22.125Z,14.30
2023-03-02T13:28:22.420Z,14.39
2023-03-02T13:29:22.308Z,14.60
2023-03-02T13:30:22.760Z,14.5
2023-03-02T13:31:22.356Z,14.39
2023-03-02T13:32:22.333Z,14.5
2023-03-02T13:33:22.509Z,16
2023-03-02T13:34:22.637Z,15.60
2023-03-02T13:35:23.618Z,14.30
2023-03-02T13:36:21.756Z,15.5
2023-03-02T13:37:22.486Z,15.80
2023-03-02T13:38:22.298Z,15.10
2023-03-02T13:39:22.124Z,15.30
2023-03-02T13:40:22.729Z,15.60
2023-03-02T13:41:22.343Z,15
2023-03-02T13:42:21.951Z,15.89
2023-03-02T13:43:21.964Z,15.19